createdAt,value
2023-02-22T00:04:52.395Z,9.00
2023-02-22T00:10:20.912Z,10.40
2023-02-22T00:15:46.816Z,7.50
2023-02-22T00:21:13.932Z,8.00
2023-02-22T00:26:39.440Z,11.70
2023-02-22T00:32:04.526Z,8.40
2023-02-22T00:37:31.974Z,14.80
2023-02-22T00:42:55.997Z,14.80
2023-02-22T00:48:20.669Z,11.40
2023-02-22T00:53:45.933Z,11.70
2023-02-22T00:59:09.861Z,16.90
2023-02-22T01:04:33.828Z,12.40
2023-02-22T01:09:58.365Z,8.20
2023-02-22T01:15:25.344Z,8.90
2023-02-22T01:20:51.096Z,12.30
2023-02-22T01:26:15.355Z,11.50
2023-02-22T01:31:39.413Z,17.50
2023-02-22T01:37:03.670Z,13.10
2023-02-22T01:42:29.860Z,14.70
2023-02-22T01:47:55.899Z,13.50
2023-02-22T01:53:25.992Z,11.80
2023-02-22T01:59:02.724Z,14.20
2023-02-22T02:04:28.417Z,20.70
2023-02-22T02:10:00.077Z,14.90
2023-02-22T02:15:35.157Z,18.20
2023-02-22T02:21:38.849Z,9.30
2023-02-22T02:27:23.581Z,9.80
2023-02-22T02:32:59.354Z,16.30
2023-02-22T02:38:47.598Z,22.50
2023-02-22T02:44:23.747Z,11.90
2023-02-22T02:50:14.309Z,10.90
2023-02-22T02:55:38.523Z,12.70
2023-02-22T03:01:04.910Z,12.20
2023-02-22T03:07:08.063Z,9.20
2023-02-22T03:12:35.599Z,8.60
2023-02-22T03:18:07.626Z,13.00
2023-02-22T03:23:42.873Z,20.70
2023-02-22T03:29:10.177Z,12.60
2023-02-22T03:34:41.209Z,15.40
2023-02-22T03:40:15.670Z,11.70
2023-02-22T03:45:45.199Z,12.20
2023-02-22T03:51:10.138Z,12.80
2023-02-22T03:56:47.619Z,14.40
2023-02-22T04:02:12.088Z,6.20
2023-02-22T04:13:45.213Z,11.60
2023-02-22T04:19:09.516Z,7.90
2023-02-22T04:24:36.163Z,9.00
2023-02-22T04:30:00.947Z,10.90
2023-02-22T04:35:26.886Z,15.70
2023-02-22T04:40:51.477Z,10.10
2023-02-22T04:46:18.074Z,6.60
2023-02-22T04:51:42.807Z,7.80
2023-02-22T04:57:09.549Z,6.80
2023-02-22T05:02:34.702Z,7.40
2023-02-22T05:07:58.908Z,7.60
2023-02-22T05:13:23.828Z,8.20
2023-02-22T05:18:48.435Z,7.00
2023-02-22T05:24:12.513Z,6.10
2023-02-22T05:29:39.570Z,13.40
2023-02-22T05:35:06.419Z,12.10
2023-02-22T05:40:31.066Z,8.70
2023-02-22T05:45:55.976Z,9.80
2023-02-22T05:51:20.276Z,9.50
2023-02-22T05:56:45.239Z,8.80
2023-02-22T06:02:10.121Z,8.90
2023-02-22T06:07:35.420Z,6.80
2023-02-22T06:13:01.234Z,5.90
2023-02-22T06:18:27.179Z,12.30
2023-02-22T06:23:51.454Z,7.90
2023-02-22T06:29:15.570Z,7.30
2023-02-22T06:34:41.546Z,7.50
2023-02-22T06:40:07.066Z,10.00
2023-02-22T06:45:31.623Z,12.10
2023-02-22T06:50:55.885Z,8.90
2023-02-22T06:56:20.887Z,5.40
2023-02-22T07:01:46.114Z,7.60
2023-02-22T07:07:11.064Z,9.50
2023-02-22T07:12:36.192Z,135.60
2023-02-22T07:18:01.308Z,202.10
2023-02-22T07:23:25.909Z,91.00
2023-02-22T07:28:50.356Z,35.60
2023-02-22T07:34:14.723Z,55.70
2023-02-22T07:39:39.482Z,49.50
2023-02-22T07:45:04.663Z,35.10
2023-02-22T07:50:31.590Z,7.60
2023-02-22T07:56:00.552Z,16.90
2023-02-22T08:01:25.235Z,12.80
2023-02-22T08:06:50.556Z,16.00
2023-02-22T08:12:14.554Z,8.70
2023-02-22T08:17:39.551Z,7.60
2023-02-22T08:23:05.139Z,6.80
2023-02-22T08:28:29.225Z,8.50
2023-02-22T08:33:53.076Z,9.30
2023-02-22T08:39:23.835Z,7.50
2023-02-22T08:44:52.101Z,7.40
2023-02-22T08:50:23.762Z,11.70
2023-02-22T08:55:50.086Z,8.60
2023-02-22T09:01:19.254Z,12.80
2023-02-22T09:06:51.981Z,10.90
2023-02-22T09:12:16.147Z,9.90
2023-02-22T09:17:40.641Z,17.70
2023-02-22T09:23:07.283Z,12.30
2023-02-22T09:28:31.529Z,13.40
2023-02-22T09:33:56.041Z,9.50
2023-02-22T09:39:22.062Z,12.90
2023-02-22T09:45:03.828Z,12.80
2023-02-22T09:50:42.711Z,11.30
2023-02-22T09:56:11.699Z,18.00
2023-02-22T10:01:45.515Z,13.40
2023-02-22T10:07:20.965Z,5.60
2023-02-22T10:13:00.204Z,8.70
2023-02-22T10:18:55.525Z,10.30
2023-02-22T10:24:40.237Z,10.10
2023-02-22T10:30:27.235Z,10.70
2023-02-22T10:35:53.071Z,14.60
2023-02-22T10:41:38.748Z,14.90
2023-02-22T10:47:06.284Z,11.40
2023-02-22T10:52:35.762Z,9.90
2023-02-22T10:58:05.142Z,11.10
2023-02-22T11:03:30.802Z,7.70
2023-02-22T11:09:22.789Z,12.00
2023-02-22T11:14:48.115Z,8.80
2023-02-22T11:20:27.459Z,12.70
2023-02-22T11:26:10.892Z,12.20
2023-02-22T11:31:44.470Z,12.20
2023-02-22T11:37:32.835Z,12.00
2023-02-22T11:43:15.020Z,10.10
2023-02-22T11:54:36.330Z,12.40
2023-02-22T12:00:16.740Z,14.80
2023-02-22T12:06:11.044Z,12.50
2023-02-22T12:11:52.874Z,14.80
2023-02-22T12:17:20.917Z,12.30
2023-02-22T12:22:55.519Z,10.60
2023-02-22T12:28:30.714Z,10.50
2023-02-22T12:34:01.436Z,10.20
2023-02-22T12:39:55.788Z,11.40
2023-02-22T12:45:29.396Z,12.80
2023-02-22T12:50:59.376Z,10.80
2023-02-22T12:56:31.680Z,10.70
2023-02-22T13:02:02.241Z,13.40
2023-02-22T13:07:46.031Z,10.80
2023-02-22T13:13:19.004Z,23.50
2023-02-22T13:18:56.011Z,11.90
2023-02-22T13:24:30.650Z,11.20
2023-02-22T13:30:00.183Z,10.00
2023-02-22T13:35:26.471Z,11.40
2023-02-22T13:41:21.281Z,9.70
2023-02-22T13:46:48.726Z,11.90
2023-02-22T13:52:20.749Z,9.40
2023-02-22T13:57:50.118Z,6.10
2023-02-22T14:03:14.611Z,11.50
2023-02-22T14:08:41.972Z,7.20
2023-02-22T14:14:05.787Z,8.90
2023-02-22T14:19:30.275Z,14.10
2023-02-22T14:24:55.452Z,7.00
2023-02-22T14:30:27.770Z,9.80
2023-02-22T14:35:52.885Z,9.70
2023-02-22T14:41:18.712Z,9.70
2023-02-22T14:46:50.320Z,9.40
2023-02-22T14:52:37.407Z,9.10
2023-02-22T14:58:19.222Z,9.80
2023-02-22T15:03:46.249Z,14.20
2023-02-22T15:09:28.428Z,6.60
2023-02-22T15:15:14.533Z,10.00
2023-02-22T15:20:38.878Z,15.00
2023-02-22T15:26:04.181Z,9.40
2023-02-22T15:31:36.314Z,14.40
2023-02-22T15:37:25.617Z,18.70
2023-02-22T15:42:58.775Z,8.50
2023-02-22T15:53:51.758Z,12.00
2023-02-22T15:59:23.939Z,15.90
2023-02-22T16:04:59.271Z,21.10
2023-02-22T16:10:28.652Z,16.50
2023-02-22T16:16:02.257Z,28.80
2023-02-22T16:21:27.047Z,27.60
2023-02-22T16:27:06.779Z,23.20
2023-02-22T16:32:31.146Z,19.30
2023-02-22T16:38:08.005Z,17.40
2023-02-22T16:43:36.363Z,14.90
2023-02-22T16:49:03.638Z,12.30
2023-02-22T16:54:53.830Z,13.80
2023-02-22T17:00:31.768Z,16.00
2023-02-22T17:05:56.486Z,14.60
2023-02-22T17:11:21.834Z,15.70
2023-02-22T17:16:49.159Z,17.90
2023-02-22T17:22:22.946Z,24.80
2023-02-22T17:27:47.572Z,16.80
2023-02-22T17:33:16.553Z,19.50
2023-02-22T17:38:43.296Z,18.80
2023-02-22T17:44:09.026Z,19.40
2023-02-22T17:49:33.483Z,19.60
2023-02-22T17:54:58.554Z,26.60
2023-02-22T18:00:33.611Z,20.10
2023-02-22T18:06:00.834Z,24.90
2023-02-22T18:11:28.354Z,21.50
2023-02-22T18:16:53.241Z,20.70
2023-02-22T18:22:17.278Z,20.20
2023-02-22T18:27:45.903Z,13.70
2023-02-22T18:33:11.999Z,19.20
2023-02-22T18:38:36.094Z,22.70
2023-02-22T18:44:01.426Z,20.70
2023-02-22T18:49:27.316Z,19.00
2023-02-22T18:54:52.569Z,21.60
2023-02-22T19:00:23.522Z,22.10
2023-02-22T19:05:52.114Z,29.50
2023-02-22T19:11:19.763Z,23.70
2023-02-22T19:16:47.456Z,20.50
2023-02-22T19:22:15.448Z,26.20
2023-02-22T19:27:42.148Z,23.30
2023-02-22T19:33:06.950Z,19.70
2023-02-22T19:38:31.700Z,17.90
2023-02-22T19:43:56.716Z,17.10
2023-02-22T19:49:22.205Z,18.70
2023-02-22T19:54:47.619Z,22.60
2023-02-22T20:00:12.781Z,23.80
2023-02-22T20:05:41.199Z,25.70
2023-02-22T20:11:07.007Z,25.60
2023-02-22T20:16:31.153Z,25.90
2023-02-22T20:21:57.938Z,24.80
2023-02-22T20:27:24.776Z,20.40
2023-02-22T20:32:49.469Z,20.80
2023-02-22T20:38:15.090Z,28.70
2023-02-22T20:43:40.116Z,24.00
2023-02-22T20:49:07.848Z,30.00
2023-02-22T20:54:34.934Z,22.80
2023-02-22T21:00:02.992Z,24.50
2023-02-22T21:05:28.508Z,33.20
2023-02-22T21:10:53.430Z,33.60
2023-02-22T21:16:37.411Z,24.00
2023-02-22T21:22:08.479Z,23.50
2023-02-22T21:27:33.007Z,32.70
2023-02-22T21:32:57.894Z,30.20
2023-02-22T21:38:22.284Z,24.30
2023-02-22T21:43:51.893Z,30.00
2023-02-22T21:49:15.995Z,27.10
2023-02-22T21:54:39.911Z,29.40
2023-02-22T22:00:17.997Z,30.10
2023-02-22T22:05:45.690Z,33.90
2023-02-22T22:11:11.984Z,28.40
2023-02-22T22:16:37.306Z,28.90
2023-02-22T22:22:03.235Z,23.50
2023-02-22T22:27:27.651Z,30.40
2023-02-22T22:32:52.034Z,29.80
2023-02-22T22:38:17.503Z,32.50
2023-02-22T22:43:46.602Z,26.10
2023-02-22T22:49:14.095Z,27.10
2023-02-22T22:54:38.823Z,31.80
2023-02-22T23:00:22.836Z,23.10
2023-02-22T23:05:47.149Z,30.40
2023-02-22T23:11:13.030Z,24.90
2023-02-22T23:16:37.112Z,33.90
2023-02-22T23:22:05.580Z,24.50
2023-02-22T23:27:29.698Z,24.40
2023-02-22T23:32:57.526Z,23.10
2023-02-22T23:38:21.941Z,28.30
2023-02-22T23:43:47.644Z,27.30
2023-02-22T23:49:11.749Z,35.70
2023-02-22T23:54:40.603Z,22.70
